sensor_id;sensor_type;location;lat;lon;timestamp;temperature;humidity
84176;DHT22;74306;40.114;18.304;2024-03-02T00:01:32;14.20;78.00
84176;DHT22;74306;40.114;18.304;2024-03-02T00:04:03;14.20;78.10
84176;DHT22;74306;40.114;18.304;2024-03-02T00:06:34;14.10;78.20
84176;DHT22;74306;40.114;18.304;2024-03-02T00:09:06;14.10;78.30
84176;DHT22;74306;40.114;18.304;2024-03-02T00:11:39;14.20;78.30
84176;DHT22;74306;40.114;18.304;2024-03-02T00:14:08;14.20;78.30
84176;DHT22;74306;40.114;18.304;2024-03-02T00:16:39;14.20;78.30
84176;DHT22;74306;40.114;18.304;2024-03-02T00:19:09;14.20;78.30
84176;DHT22;74306;40.114;18.304;2024-03-02T00:21:38;14.10;78.40
84176;DHT22;74306;40.114;18.304;2024-03-02T00:24:17;14.10;78.60
84176;DHT22;74306;40.114;18.304;2024-03-02T00:27:21;14.20;78.60
84176;DHT22;74306;40.114;18.304;2024-03-02T00:29:52;14.20;78.70
84176;DHT22;74306;40.114;18.304;2024-03-02T00:32:23;14.20;78.80
84176;DHT22;74306;40.114;18.304;2024-03-02T00:34:53;14.30;78.80
84176;DHT22;74306;40.114;18.304;2024-03-02T00:37:23;14.30;78.70
84176;DHT22;74306;40.114;18.304;2024-03-02T00:39:52;14.30;78.80
84176;DHT22;74306;40.114;18.304;2024-03-02T00:42:21;14.20;78.90
84176;DHT22;74306;40.114;18.304;2024-03-02T00:44:51;14.30;79.00
84176;DHT22;74306;40.114;18.304;2024-03-02T00:47:20;14.30;79.00
84176;DHT22;74306;40.114;18.304;2024-03-02T00:49:52;14.30;79.00
84176;DHT22;74306;40.114;18.304;2024-03-02T00:52:21;14.30;79.10
84176;DHT22;74306;40.114;18.304;2024-03-02T00:54:50;14.30;78.90
84176;DHT22;74306;40.114;18.304;2024-03-02T00:57:20;14.30;79.00
84176;DHT22;74306;40.114;18.304;2024-03-02T00:59:50;14.30;79.10
84176;DHT22;74306;40.114;18.304;2024-03-02T01:02:20;14.30;79.20
84176;DHT22;74306;40.114;18.304;2024-03-02T01:04:50;14.30;79.10
84176;DHT22;74306;40.114;18.304;2024-03-02T01:07:20;14.30;79.20
84176;DHT22;74306;40.114;18.304;2024-03-02T01:09:49;14.30;79.30
84176;DHT22;74306;40.114;18.304;2024-03-02T01:12:18;14.30;78.90
84176;DHT22;74306;40.114;18.304;2024-03-02T01:14:48;14.40;79.00
84176;DHT22;74306;40.114;18.304;2024-03-02T01:17:17;14.40;78.90
84176;DHT22;74306;40.114;18.304;2024-03-02T01:19:46;14.30;79.00
84176;DHT22;74306;40.114;18.304;2024-03-02T01:22:17;14.30;79.10
84176;DHT22;74306;40.114;18.304;2024-03-02T01:24:52;14.30;79.30
84176;DHT22;74306;40.114;18.304;2024-03-02T01:27:22;14.30;79.30
84176;DHT22;74306;40.114;18.304;2024-03-02T01:29:51;14.40;79.30
84176;DHT22;74306;40.114;18.304;2024-03-02T01:32:22;14.40;79.10
84176;DHT22;74306;40.114;18.304;2024-03-02T01:34:51;14.40;79.10
84176;DHT22;74306;40.114;18.304;2024-03-02T01:37:21;14.40;79.10
84176;DHT22;74306;40.114;18.304;2024-03-02T01:39:51;14.40;79.00
84176;DHT22;74306;40.114;18.304;2024-03-02T01:42:20;14.40;79.20
84176;DHT22;74306;40.114;18.304;2024-03-02T01:44:50;14.50;79.20
84176;DHT22;74306;40.114;18.304;2024-03-02T01:47:19;14.40;79.20
84176;DHT22;74306;40.114;18.304;2024-03-02T01:49:49;14.40;79.30
84176;DHT22;74306;40.114;18.304;2024-03-02T01:52:18;14.40;79.40
84176;DHT22;74306;40.114;18.304;2024-03-02T01:54:49;14.40;79.30
84176;DHT22;74306;40.114;18.304;2024-03-02T01:57:19;14.50;79.30
84176;DHT22;74306;40.114;18.304;2024-03-02T01:59:48;14.40;79.30
84176;DHT22;74306;40.114;18.304;2024-03-02T02:02:18;14.40;79.40
84176;DHT22;74306;40.114;18.304;2024-03-02T02:04:48;14.40;79.30
84176;DHT22;74306;40.114;18.304;2024-03-02T02:07:18;14.40;79.30
84176;DHT22;74306;40.114;18.304;2024-03-02T02:09:48;14.50;79.40
84176;DHT22;74306;40.114;18.304;2024-03-02T02:12:18;14.40;79.70
84176;DHT22;74306;40.114;18.304;2024-03-02T02:14:47;14.40;79.60
84176;DHT22;74306;40.114;18.304;2024-03-02T02:17:18;14.40;79.60
84176;DHT22;74306;40.114;18.304;2024-03-02T02:19:47;14.40;79.70
84176;DHT22;74306;40.114;18.304;2024-03-02T02:22:18;14.40;79.60
84176;DHT22;74306;40.114;18.304;2024-03-02T02:24:47;14.40;79.70
84176;DHT22;74306;40.114;18.304;2024-03-02T02:27:16;14.40;79.70
84176;DHT22;74306;40.114;18.304;2024-03-02T02:29:46;14.40;79.80
84176;DHT22;74306;40.114;18.304;2024-03-02T02:32:15;14.40;79.60
84176;DHT22;74306;40.114;18.304;2024-03-02T02:34:45;14.50;79.70
84176;DHT22;74306;40.114;18.304;2024-03-02T02:37:14;14.50;79.50
84176;DHT22;74306;40.114;18.304;2024-03-02T02:39:45;14.40;79.50
84176;DHT22;74306;40.114;18.304;2024-03-02T02:42:14;14.40;79.60
84176;DHT22;74306;40.114;18.304;2024-03-02T02:44:43;14.30;80.00
84176;DHT22;74306;40.114;18.304;2024-03-02T02:47:13;14.30;79.90
84176;DHT22;74306;40.114;18.304;2024-03-02T02:49:42;14.20;80.10
84176;DHT22;74306;40.114;18.304;2024-03-02T02:52:11;14.20;80.30
84176;DHT22;74306;40.114;18.304;2024-03-02T02:54:40;14.10;80.30
84176;DHT22;74306;40.114;18.304;2024-03-02T02:57:11;14.10;80.10
84176;DHT22;74306;40.114;18.304;2024-03-02T02:59:40;14.20;80.10
84176;DHT22;74306;40.114;18.304;2024-03-02T03:02:09;14.20;80.20
84176;DHT22;74306;40.114;18.304;2024-03-02T03:04:56;14.10;80.20
84176;DHT22;74306;40.114;18.304;2024-03-02T03:07:25;14.10;80.20
84176;DHT22;74306;40.114;18.304;2024-03-02T03:09:54;14.10;80.40
84176;DHT22;74306;40.114;18.304;2024-03-02T03:12:25;14.00;80.40
84176;DHT22;74306;40.114;18.304;2024-03-02T03:14:55;14.00;80.40
84176;DHT22;74306;40.114;18.304;2024-03-02T03:17:25;14.00;80.40
84176;DHT22;74306;40.114;18.304;2024-03-02T03:19:54;14.00;80.30
84176;DHT22;74306;40.114;18.304;2024-03-02T03:22:24;14.00;80.40
84176;DHT22;74306;40.114;18.304;2024-03-02T03:24:53;14.00;80.40
84176;DHT22;74306;40.114;18.304;2024-03-02T03:27:22;13.90;80.40
84176;DHT22;74306;40.114;18.304;2024-03-02T03:29:53;13.90;80.40
84176;DHT22;74306;40.114;18.304;2024-03-02T03:32:23;13.80;80.60
84176;DHT22;74306;40.114;18.304;2024-03-02T03:34:52;13.90;80.50
84176;DHT22;74306;40.114;18.304;2024-03-02T03:37:22;13.90;80.40
84176;DHT22;74306;40.114;18.304;2024-03-02T03:39:52;13.90;80.60
84176;DHT22;74306;40.114;18.304;2024-03-02T03:42:21;13.80;80.90
84176;DHT22;74306;40.114;18.304;2024-03-02T03:44:50;13.80;80.60
84176;DHT22;74306;40.114;18.304;2024-03-02T03:47:21;13.80;80.60
84176;DHT22;74306;40.114;18.304;2024-03-02T03:49:50;13.80;80.60
84176;DHT22;74306;40.114;18.304;2024-03-02T03:52:19;13.70;80.50
84176;DHT22;74306;40.114;18.304;2024-03-02T03:54:50;13.60;80.80
84176;DHT22;74306;40.114;18.304;2024-03-02T03:57:19;13.60;80.90
84176;DHT22;74306;40.114;18.304;2024-03-02T03:59:48;13.50;80.70
84176;DHT22;74306;40.114;18.304;2024-03-02T04:02:18;13.50;80.70
84176;DHT22;74306;40.114;18.304;2024-03-02T04:04:49;13.40;80.90
84176;DHT22;74306;40.114;18.304;2024-03-02T04:07:18;13.40;81.00
84176;DHT22;74306;40.114;18.304;2024-03-02T04:09:47;13.40;81.00
84176;DHT22;74306;40.114;18.304;2024-03-02T04:12:17;13.40;81.00
84176;DHT22;74306;40.114;18.304;2024-03-02T04:14:46;13.30;81.10
84176;DHT22;74306;40.114;18.304;2024-03-02T04:17:15;13.30;81.10
84176;DHT22;74306;40.114;18.304;2024-03-02T04:19:45;13.30;81.00
84176;DHT22;74306;40.114;18.304;2024-03-02T04:22:15;13.30;81.20
84176;DHT22;74306;40.114;18.304;2024-03-02T04:24:45;13.20;81.30
84176;DHT22;74306;40.114;18.304;2024-03-02T04:27:14;13.20;81.50
84176;DHT22;74306;40.114;18.304;2024-03-02T04:29:43;13.30;81.50
84176;DHT22;74306;40.114;18.304;2024-03-02T04:32:13;13.20;81.30
84176;DHT22;74306;40.114;18.304;2024-03-02T04:34:42;13.20;81.30
84176;DHT22;74306;40.114;18.304;2024-03-02T04:37:11;13.10;81.40
84176;DHT22;74306;40.114;18.304;2024-03-02T04:39:43;13.10;81.50
84176;DHT22;74306;40.114;18.304;2024-03-02T04:42:13;13.00;81.60
84176;DHT22;74306;40.114;18.304;2024-03-02T04:44:42;13.00;81.40
84176;DHT22;74306;40.114;18.304;2024-03-02T04:47:11;12.90;81.40
84176;DHT22;74306;40.114;18.304;2024-03-02T04:49:40;12.90;81.40
84176;DHT22;74306;40.114;18.304;2024-03-02T04:52:10;12.90;81.50
84176;DHT22;74306;40.114;18.304;2024-03-02T04:54:39;12.90;81.60
84176;DHT22;74306;40.114;18.304;2024-03-02T04:57:24;12.90;81.70
84176;DHT22;74306;40.114;18.304;2024-03-02T04:59:53;13.00;81.60
84176;DHT22;74306;40.114;18.304;2024-03-02T05:02:22;13.00;81.60
84176;DHT22;74306;40.114;18.304;2024-03-02T05:04:51;12.90;81.50
84176;DHT22;74306;40.114;18.304;2024-03-02T05:07:21;12.90;81.80
84176;DHT22;74306;40.114;18.304;2024-03-02T05:09:50;12.90;81.90
84176;DHT22;74306;40.114;18.304;2024-03-02T05:12:19;12.90;81.50
84176;DHT22;74306;40.114;18.304;2024-03-02T05:15:16;12.90;81.70
84176;DHT22;74306;40.114;18.304;2024-03-02T05:17:46;12.90;81.90
84176;DHT22;74306;40.114;18.304;2024-03-02T05:20:15;12.90;81.90
84176;DHT22;74306;40.114;18.304;2024-03-02T05:22:44;12.80;81.80
84176;DHT22;74306;40.114;18.304;2024-03-02T05:25:15;12.80;81.70
84176;DHT22;74306;40.114;18.304;2024-03-02T05:27:44;12.80;81.70
84176;DHT22;74306;40.114;18.304;2024-03-02T05:30:15;12.80;81.70
84176;DHT22;74306;40.114;18.304;2024-03-02T05:32:45;12.80;81.80
84176;DHT22;74306;40.114;18.304;2024-03-02T05:35:14;12.80;81.80
84176;DHT22;74306;40.114;18.304;2024-03-02T05:37:43;12.80;81.60
84176;DHT22;74306;40.114;18.304;2024-03-02T05:40:13;12.80;81.60
84176;DHT22;74306;40.114;18.304;2024-03-02T05:42:42;12.80;81.70
84176;DHT22;74306;40.114;18.304;2024-03-02T05:45:11;12.80;81.80
84176;DHT22;74306;40.114;18.304;2024-03-02T05:47:42;12.80;81.80
84176;DHT22;74306;40.114;18.304;2024-03-02T05:50:12;12.80;81.80
84176;DHT22;74306;40.114;18.304;2024-03-02T05:52:41;12.80;81.80
84176;DHT22;74306;40.114;18.304;2024-03-02T05:55:10;12.80;81.70
84176;DHT22;74306;40.114;18.304;2024-03-02T05:57:40;12.80;81.60
84176;DHT22;74306;40.114;18.304;2024-03-02T06:00:23;12.80;81.60
84176;DHT22;74306;40.114;18.304;2024-03-02T06:02:54;12.80;81.70
84176;DHT22;74306;40.114;18.304;2024-03-02T06:05:24;12.80;81.60
84176;DHT22;74306;40.114;18.304;2024-03-02T06:07:53;12.80;81.80
84176;DHT22;74306;40.114;18.304;2024-03-02T06:10:23;12.80;81.70
84176;DHT22;74306;40.114;18.304;2024-03-02T06:12:52;12.90;81.60
84176;DHT22;74306;40.114;18.304;2024-03-02T06:15:22;12.80;81.50
84176;DHT22;74306;40.114;18.304;2024-03-02T06:17:52;12.80;81.80
84176;DHT22;74306;40.114;18.304;2024-03-02T06:20:22;12.90;81.70
84176;DHT22;74306;40.114;18.304;2024-03-02T06:22:51;13.00;81.60
84176;DHT22;74306;40.114;18.304;2024-03-02T06:25:20;13.00;81.60
84176;DHT22;74306;40.114;18.304;2024-03-02T06:27:49;13.00;81.80
84176;DHT22;74306;40.114;18.304;2024-03-02T06:30:19;13.00;81.90
84176;DHT22;74306;40.114;18.304;2024-03-02T06:32:48;13.10;81.70
84176;DHT22;74306;40.114;18.304;2024-03-02T06:35:19;13.20;81.50
84176;DHT22;74306;40.114;18.304;2024-03-02T06:37:48;13.30;81.10
84176;DHT22;74306;40.114;18.304;2024-03-02T06:40:17;13.30;81.30
84176;DHT22;74306;40.114;18.304;2024-03-02T06:42:47;13.30;81.40
84176;DHT22;74306;40.114;18.304;2024-03-02T06:45:16;13.40;81.40
84176;DHT22;74306;40.114;18.304;2024-03-02T06:47:45;13.50;81.20
84176;DHT22;74306;40.114;18.304;2024-03-02T06:50:15;13.60;81.10
84176;DHT22;74306;40.114;18.304;2024-03-02T06:52:45;13.70;81.20
84176;DHT22;74306;40.114;18.304;2024-03-02T06:55:15;13.80;81.10
84176;DHT22;74306;40.114;18.304;2024-03-02T06:57:44;13.80;81.10
84176;DHT22;74306;40.114;18.304;2024-03-02T07:00:14;13.90;81.30
84176;DHT22;74306;40.114;18.304;2024-03-02T07:02:44;13.90;81.30
84176;DHT22;74306;40.114;18.304;2024-03-02T07:05:14;13.90;81.60
84176;DHT22;74306;40.114;18.304;2024-03-02T07:07:44;14.10;81.60
84176;DHT22;74306;40.114;18.304;2024-03-02T07:10:14;14.30;81.40
84176;DHT22;74306;40.114;18.304;2024-03-02T07:12:43;14.40;81.10
84176;DHT22;74306;40.114;18.304;2024-03-02T07:15:13;14.50;81.30
84176;DHT22;74306;40.114;18.304;2024-03-02T07:18:02;14.50;81.50
84176;DHT22;74306;40.114;18.304;2024-03-02T07:20:32;14.70;81.20
84176;DHT22;74306;40.114;18.304;2024-03-02T07:23:02;14.70;81.10
84176;DHT22;74306;40.114;18.304;2024-03-02T07:25:32;14.80;81.30
84176;DHT22;74306;40.114;18.304;2024-03-02T07:28:05;14.90;81.20
84176;DHT22;74306;40.114;18.304;2024-03-02T07:30:35;15.00;80.70
84176;DHT22;74306;40.114;18.304;2024-03-02T07:33:06;15.00;80.80
84176;DHT22;74306;40.114;18.304;2024-03-02T07:35:36;15.00;80.70
84176;DHT22;74306;40.114;18.304;2024-03-02T07:38:07;15.00;80.50
84176;DHT22;74306;40.114;18.304;2024-03-02T07:40:36;15.10;80.20
84176;DHT22;74306;40.114;18.304;2024-03-02T07:43:05;15.20;80.00
84176;DHT22;74306;40.114;18.304;2024-03-02T07:45:35;15.30;80.00
84176;DHT22;74306;40.114;18.304;2024-03-02T07:48:05;15.40;79.30
84176;DHT22;74306;40.114;18.304;2024-03-02T07:50:35;15.50;78.80
84176;DHT22;74306;40.114;18.304;2024-03-02T07:53:06;15.30;78.30
84176;DHT22;74306;40.114;18.304;2024-03-02T07:55:36;15.60;78.20
84176;DHT22;74306;40.114;18.304;2024-03-02T07:58:05;15.80;77.20
84176;DHT22;74306;40.114;18.304;2024-03-02T08:00:35;15.90;77.00
84176;DHT22;74306;40.114;18.304;2024-03-02T08:03:04;16.10;75.80
84176;DHT22;74306;40.114;18.304;2024-03-02T08:05:34;16.40;75.10
84176;DHT22;74306;40.114;18.304;2024-03-02T08:08:06;16.50;73.60
84176;DHT22;74306;40.114;18.304;2024-03-02T08:10:35;16.90;73.20
84176;DHT22;74306;40.114;18.304;2024-03-02T08:13:04;17.00;71.60
84176;DHT22;74306;40.114;18.304;2024-03-02T08:15:34;16.90;71.20
84176;DHT22;74306;40.114;18.304;2024-03-02T08:18:02;16.90;71.00
84176;DHT22;74306;40.114;18.304;2024-03-02T08:20:31;16.80;70.30
84176;DHT22;74306;40.114;18.304;2024-03-02T08:23:01;16.70;70.10
84176;DHT22;74306;40.114;18.304;2024-03-02T08:25:31;16.70;70.30
84176;DHT22;74306;40.114;18.304;2024-03-02T08:28:01;16.60;70.10
84176;DHT22;74306;40.114;18.304;2024-03-02T08:30:30;16.40;69.20
84176;DHT22;74306;40.114;18.304;2024-03-02T08:33:00;16.30;69.90
84176;DHT22;74306;40.114;18.304;2024-03-02T08:35:29;16.30;70.00
84176;DHT22;74306;40.114;18.304;2024-03-02T08:38:03;16.10;70.80
84176;DHT22;74306;40.114;18.304;2024-03-02T08:40:35;16.10;71.30
84176;DHT22;74306;40.114;18.304;2024-03-02T08:43:04;16.00;72.10
84176;DHT22;74306;40.114;18.304;2024-03-02T08:45:33;16.00;72.20
84176;DHT22;74306;40.114;18.304;2024-03-02T08:48:04;16.00;72.70
84176;DHT22;74306;40.114;18.304;2024-03-02T08:50:34;16.00;72.60
84176;DHT22;74306;40.114;18.304;2024-03-02T08:53:03;16.20;72.20
84176;DHT22;74306;40.114;18.304;2024-03-02T08:55:34;16.30;71.50
84176;DHT22;74306;40.114;18.304;2024-03-02T08:58:04;16.50;71.30
84176;DHT22;74306;40.114;18.304;2024-03-02T09:00:33;16.40;68.70
84176;DHT22;74306;40.114;18.304;2024-03-02T09:03:03;16.60;68.30
84176;DHT22;74306;40.114;18.304;2024-03-02T09:05:33;16.50;68.30
84176;DHT22;74306;40.114;18.304;2024-03-02T09:08:02;16.30;68.70
84176;DHT22;74306;40.114;18.304;2024-03-02T09:10:34;16.30;69.30
84176;DHT22;74306;40.114;18.304;2024-03-02T09:13:04;16.40;69.10
84176;DHT22;74306;40.114;18.304;2024-03-02T09:15:33;16.40;69.00
84176;DHT22;74306;40.114;18.304;2024-03-02T09:18:05;16.30;68.40
84176;DHT22;74306;40.114;18.304;2024-03-02T09:20:35;16.40;68.50
84176;DHT22;74306;40.114;18.304;2024-03-02T09:23:04;16.50;68.10
84176;DHT22;74306;40.114;18.304;2024-03-02T09:25:35;16.80;67.40
84176;DHT22;74306;40.114;18.304;2024-03-02T09:28:05;16.70;69.20
84176;DHT22;74306;40.114;18.304;2024-03-02T09:30:34;16.60;70.60
84176;DHT22;74306;40.114;18.304;2024-03-02T09:33:04;17.00;69.10
84176;DHT22;74306;40.114;18.304;2024-03-02T09:35:37;17.00;68.50
84176;DHT22;74306;40.114;18.304;2024-03-02T09:38:06;16.80;68.50
84176;DHT22;74306;40.114;18.304;2024-03-02T09:40:37;16.60;68.80
84176;DHT22;74306;40.114;18.304;2024-03-02T09:43:07;16.80;68.50
84176;DHT22;74306;40.114;18.304;2024-03-02T09:45:37;17.20;68.60
84176;DHT22;74306;40.114;18.304;2024-03-02T09:48:07;17.80;67.40
84176;DHT22;74306;40.114;18.304;2024-03-02T09:50:36;17.90;66.60
84176;DHT22;74306;40.114;18.304;2024-03-02T09:53:06;17.90;64.10
84176;DHT22;74306;40.114;18.304;2024-03-02T09:55:37;17.30;67.00
84176;DHT22;74306;40.114;18.304;2024-03-02T09:58:11;17.60;66.60
84176;DHT22;74306;40.114;18.304;2024-03-02T10:00:41;17.60;67.30
84176;DHT22;74306;40.114;18.304;2024-03-02T10:03:12;17.80;66.30
84176;DHT22;74306;40.114;18.304;2024-03-02T10:05:41;17.80;65.20
84176;DHT22;74306;40.114;18.304;2024-03-02T10:08:11;17.80;64.50
84176;DHT22;74306;40.114;18.304;2024-03-02T10:10:42;17.70;65.80
84176;DHT22;74306;40.114;18.304;2024-03-02T10:13:13;18.00;64.10
84176;DHT22;74306;40.114;18.304;2024-03-02T10:15:42;18.30;62.80
84176;DHT22;74306;40.114;18.304;2024-03-02T10:18:12;18.40;62.90
84176;DHT22;74306;40.114;18.304;2024-03-02T10:20:43;18.70;61.50
84176;DHT22;74306;40.114;18.304;2024-03-02T10:23:14;19.20;60.10
84176;DHT22;74306;40.114;18.304;2024-03-02T10:25:45;19.90;58.80
84176;DHT22;74306;40.114;18.304;2024-03-02T10:28:17;20.60;56.30
84176;DHT22;74306;40.114;18.304;2024-03-02T10:30:47;21.40;55.30
84176;DHT22;74306;40.114;18.304;2024-03-02T10:33:19;21.00;55.70
84176;DHT22;74306;40.114;18.304;2024-03-02T10:35:49;21.60;54.10
84176;DHT22;74306;40.114;18.304;2024-03-02T10:38:19;21.90;53.40
84176;DHT22;74306;40.114;18.304;2024-03-02T10:40:50;23.00;50.80
84176;DHT22;74306;40.114;18.304;2024-03-02T10:43:20;23.80;49.20
84176;DHT22;74306;40.114;18.304;2024-03-02T10:45:50;23.90;46.50
84176;DHT22;74306;40.114;18.304;2024-03-02T10:48:20;23.10;48.20
84176;DHT22;74306;40.114;18.304;2024-03-02T10:50:49;22.50;49.30
84176;DHT22;74306;40.114;18.304;2024-03-02T10:53:21;23.30;48.80
84176;DHT22;74306;40.114;18.304;2024-03-02T10:55:57;23.70;46.50
84176;DHT22;74306;40.114;18.304;2024-03-02T10:58:32;23.30;47.40
84176;DHT22;74306;40.114;18.304;2024-03-02T11:01:03;23.40;46.60
84176;DHT22;74306;40.114;18.304;2024-03-02T11:03:35;21.90;49.80
84176;DHT22;74306;40.114;18.304;2024-03-02T11:06:08;21.30;51.60
84176;DHT22;74306;40.114;18.304;2024-03-02T11:08:38;20.60;53.80
84176;DHT22;74306;40.114;18.304;2024-03-02T11:11:15;20.60;54.70
84176;DHT22;74306;40.114;18.304;2024-03-02T11:13:49;20.30;56.70
84176;DHT22;74306;40.114;18.304;2024-03-02T11:16:26;20.30;57.50
84176;DHT22;74306;40.114;18.304;2024-03-02T11:18:58;20.10;58.20
84176;DHT22;74306;40.114;18.304;2024-03-02T11:21:28;19.90;58.80
84176;DHT22;74306;40.114;18.304;2024-03-02T11:24:00;19.90;58.20
84176;DHT22;74306;40.114;18.304;2024-03-02T11:26:38;19.90;58.10
84176;DHT22;74306;40.114;18.304;2024-03-02T11:29:08;19.70;58.20
84176;DHT22;74306;40.114;18.304;2024-03-02T11:31:58;19.60;59.30
84176;DHT22;74306;40.114;18.304;2024-03-02T11:34:32;19.70;59.90
84176;DHT22;74306;40.114;18.304;2024-03-02T11:37:03;21.70;56.60
84176;DHT22;74306;40.114;18.304;2024-03-02T11:39:32;23.70;49.70
84176;DHT22;74306;40.114;18.304;2024-03-02T11:42:06;25.30;46.70
84176;DHT22;74306;40.114;18.304;2024-03-02T11:44:38;26.90;43.00
84176;DHT22;74306;40.114;18.304;2024-03-02T11:47:08;27.60;41.10
84176;DHT22;74306;40.114;18.304;2024-03-02T11:49:38;28.10;40.50
84176;DHT22;74306;40.114;18.304;2024-03-02T11:52:10;28.60;38.10
84176;DHT22;74306;40.114;18.304;2024-03-02T11:54:40;29.10;37.80
84176;DHT22;74306;40.114;18.304;2024-03-02T11:57:16;29.50;37.00
84176;DHT22;74306;40.114;18.304;2024-03-02T11:59:47;29.80;36.60
84176;DHT22;74306;40.114;18.304;2024-03-02T12:02:18;29.90;35.70
84176;DHT22;74306;40.114;18.304;2024-03-02T12:04:48;30.30;35.50
84176;DHT22;74306;40.114;18.304;2024-03-02T12:07:19;30.00;35.30
84176;DHT22;74306;40.114;18.304;2024-03-02T12:09:59;29.80;35.60
84176;DHT22;74306;40.114;18.304;2024-03-02T12:12:30;30.30;35.10
84176;DHT22;74306;40.114;18.304;2024-03-02T12:15:00;30.30;34.90
84176;DHT22;74306;40.114;18.304;2024-03-02T12:17:31;30.30;34.50
84176;DHT22;74306;40.114;18.304;2024-03-02T12:20:00;30.00;34.30
84176;DHT22;74306;40.114;18.304;2024-03-02T12:22:33;29.80;34.30
84176;DHT22;74306;40.114;18.304;2024-03-02T12:25:03;27.90;36.60
84176;DHT22;74306;40.114;18.304;2024-03-02T12:27:34;26.50;39.80
84176;DHT22;74306;40.114;18.304;2024-03-02T12:30:04;25.10;42.50
84176;DHT22;74306;40.114;18.304;2024-03-02T12:32:36;24.10;44.90
84176;DHT22;74306;40.114;18.304;2024-03-02T12:35:08;23.80;45.90
84176;DHT22;74306;40.114;18.304;2024-03-02T12:37:43;23.40;47.30
84176;DHT22;74306;40.114;18.304;2024-03-02T12:40:14;23.00;49.50
84176;DHT22;74306;40.114;18.304;2024-03-02T12:42:47;24.50;48.00
84176;DHT22;74306;40.114;18.304;2024-03-02T12:45:16;26.30;44.20
84176;DHT22;74306;40.114;18.304;2024-03-02T12:47:51;27.00;42.70
84176;DHT22;74306;40.114;18.304;2024-03-02T12:50:21;26.20;43.90
84176;DHT22;74306;40.114;18.304;2024-03-02T12:52:51;26.00;44.40
84176;DHT22;74306;40.114;18.304;2024-03-02T12:55:22;26.60;42.50
84176;DHT22;74306;40.114;18.304;2024-03-02T12:57:53;26.10;43.60
84176;DHT22;74306;40.114;18.304;2024-03-02T13:00:23;26.50;43.30
84176;DHT22;74306;40.114;18.304;2024-03-02T13:02:52;27.40;41.10
84176;DHT22;74306;40.114;18.304;2024-03-02T13:05:22;26.30;42.40
84176;DHT22;74306;40.114;18.304;2024-03-02T13:07:53;24.90;44.90
84176;DHT22;74306;40.114;18.304;2024-03-02T13:10:23;23.80;46.90
84176;DHT22;74306;40.114;18.304;2024-03-02T13:12:54;23.00;48.90
84176;DHT22;74306;40.114;18.304;2024-03-02T13:15:26;22.30;50.10
84176;DHT22;74306;40.114;18.304;2024-03-02T13:17:58;21.70;51.50
84176;DHT22;74306;40.114;18.304;2024-03-02T13:20:30;21.50;52.40
84176;DHT22;74306;40.114;18.304;2024-03-02T13:23:00;21.70;51.70
84176;DHT22;74306;40.114;18.304;2024-03-02T13:25:29;21.40;52.40
84176;DHT22;74306;40.114;18.304;2024-03-02T13:28:01;21.30;52.60
84176;DHT22;74306;40.114;18.304;2024-03-02T13:30:31;21.30;53.50
84176;DHT22;74306;40.114;18.304;2024-03-02T13:33:00;21.30;53.50
84176;DHT22;74306;40.114;18.304;2024-03-02T13:35:30;21.50;52.90
84176;DHT22;74306;40.114;18.304;2024-03-02T13:37:59;21.40;52.60
84176;DHT22;74306;40.114;18.304;2024-03-02T13:40:28;21.30;51.80
84176;DHT22;74306;40.114;18.304;2024-03-02T13:43:04;21.00;52.20
84176;DHT22;74306;40.114;18.304;2024-03-02T13:45:34;20.80;52.90
84176;DHT22;74306;40.114;18.304;2024-03-02T13:48:05;20.40;52.40
84176;DHT22;74306;40.114;18.304;2024-03-02T13:50:34;20.30;53.20
84176;DHT22;74306;40.114;18.304;2024-03-02T13:53:04;20.50;53.00
84176;DHT22;74306;40.114;18.304;2024-03-02T13:55:34;20.80;52.70
84176;DHT22;74306;40.114;18.304;2024-03-02T13:58:05;21.90;50.50
84176;DHT22;74306;40.114;18.304;2024-03-02T14:00:35;22.90;48.80
84176;DHT22;74306;40.114;18.304;2024-03-02T14:03:06;23.30;47.80
84176;DHT22;74306;40.114;18.304;2024-03-02T14:05:35;23.70;47.40
84176;DHT22;74306;40.114;18.304;2024-03-02T14:08:05;23.70;47.10
84176;DHT22;74306;40.114;18.304;2024-03-02T14:10:34;23.60;46.50
84176;DHT22;74306;40.114;18.304;2024-03-02T14:13:05;23.50;44.70
84176;DHT22;74306;40.114;18.304;2024-03-02T14:15:35;23.20;45.10
84176;DHT22;74306;40.114;18.304;2024-03-02T14:18:06;23.20;44.60
84176;DHT22;74306;40.114;18.304;2024-03-02T14:20:37;22.90;44.90
84176;DHT22;74306;40.114;18.304;2024-03-02T14:23:08;22.30;46.30
84176;DHT22;74306;40.114;18.304;2024-03-02T14:25:39;22.10;46.80
84176;DHT22;74306;40.114;18.304;2024-03-02T14:28:09;21.70;47.10
84176;DHT22;74306;40.114;18.304;2024-03-02T14:30:43;21.30;48.50
84176;DHT22;74306;40.114;18.304;2024-03-02T14:33:13;21.00;49.20
84176;DHT22;74306;40.114;18.304;2024-03-02T14:35:42;21.30;48.90
84176;DHT22;74306;40.114;18.304;2024-03-02T14:38:12;21.40;48.80
84176;DHT22;74306;40.114;18.304;2024-03-02T14:40:41;21.50;48.60
84176;DHT22;74306;40.114;18.304;2024-03-02T14:43:12;21.50;47.60
84176;DHT22;74306;40.114;18.304;2024-03-02T14:45:41;21.30;47.90
84176;DHT22;74306;40.114;18.304;2024-03-02T14:48:12;21.00;47.40
84176;DHT22;74306;40.114;18.304;2024-03-02T14:50:42;20.60;48.20
84176;DHT22;74306;40.114;18.304;2024-03-02T14:53:11;20.30;49.20
84176;DHT22;74306;40.114;18.304;2024-03-02T14:55:41;20.10;49.60
84176;DHT22;74306;40.114;18.304;2024-03-02T14:58:12;19.90;49.60
84176;DHT22;74306;40.114;18.304;2024-03-02T15:00:41;19.90;49.90
84176;DHT22;74306;40.114;18.304;2024-03-02T15:03:10;19.80;50.20
84176;DHT22;74306;40.114;18.304;2024-03-02T15:05:40;19.60;51.00
84176;DHT22;74306;40.114;18.304;2024-03-02T15:08:10;19.80;50.80
84176;DHT22;74306;40.114;18.304;2024-03-02T15:10:39;19.60;50.50
84176;DHT22;74306;40.114;18.304;2024-03-02T15:13:11;19.50;50.30
84176;DHT22;74306;40.114;18.304;2024-03-02T15:15:41;19.30;50.50
84176;DHT22;74306;40.114;18.304;2024-03-02T15:18:10;19.20;50.00
84176;DHT22;74306;40.114;18.304;2024-03-02T15:20:40;19.10;49.80
84176;DHT22;74306;40.114;18.304;2024-03-02T15:23:09;19.10;50.10
84176;DHT22;74306;40.114;18.304;2024-03-02T15:25:39;19.10;50.20
84176;DHT22;74306;40.114;18.304;2024-03-02T15:28:08;19.10;50.60
84176;DHT22;74306;40.114;18.304;2024-03-02T15:30:39;18.90;50.90
84176;DHT22;74306;40.114;18.304;2024-03-02T15:33:09;18.80;52.10
84176;DHT22;74306;40.114;18.304;2024-03-02T15:35:38;18.50;53.20